Terminal Aerodrome Forecast
Issued by NWS Cleveland, OH

Home | Current Version | Previous Version | Text Only | Print | Product List | Glossary Off
Versions: 1 2 3 4 5 6 7 8 9 10 11 12 13 14 15 16 17 18 19 20 21 22 23 24 25 26

270
FTUS41 KCLE 251120
TAFCLE
TAF
KCLE 251120Z 2512/2618 21006KT P6SM BKN012
      TEMPO 2512/2515 SCT012
     FM251500 23011KT P6SM SCT045 BKN080
     FM252200 24012KT P6SM VCSH BKN045
      TEMPO 2522/2602 4SM -TSRA BR OVC025CB
     FM260200 24008KT P6SM SCT025 BKN080
     FM260900 28005KT P6SM SCT250
      TEMPO 2609/2613 4SM BR
     FM261500 32006KT P6SM SCT250=

USA.gov is the U.S. government's official web portal to all federal, state and local government web resources and services.